Acrelandia, Brazil
Current Conditions -  °F | °C
As of 6:00 AM on Sunday 23 Nov 2014 (Local Time) from SBRB Reporting Station
Clear Clear  
Wind Chill: 73°   Ceiling: Unl
Heat Index: 73°   Visibility: 6mi
Dew Point: 70°   Wind: 1mph
Humidity: 88%   Direction: 50°NE
Pressure: 29.8"   Gusts: NA
Location:  9.83°S, 66.88°W
Report Text: SBRB 231000Z 05001KT CAVOK 23/21 Q1009
Loading
Personal Weather Stations






























Interactive Weather Map New forecast layout! Learn more

10-Day Weather Forecast

Advertisements
Track Severe Weather on mobile